Time;durP1;ratioP1;P1;durP2;ratioP2;P2;SDS_P1;SDS_P2;PMS_P1;PMS_P2;Temp;Humidity;BMP_temperature;BMP_pressure;BME280_temperature;BME280_humidity;BME280_pressure;Samples;Min_cycle;Max_cycle;Signal;HPM_P1;HPM_P2
2022/11/16 00:01:47;;;;;;;;;;;;;;;16.48;53.67;100543.22;4863456;29;1208;-52
2022/11/16 00:04:12;;;;;;;;;;;;;;;16.21;54.02;100543.53;4873997;29;1207;-49
2022/11/16 00:06:37;;;;;;;;;;;;;;;16.76;53.21;100544.50;4864392;29;1148;-52
2022/11/16 00:09:21;;;;;;;;;;;;;;;17.50;51.08;100546.63;4863682;29;1132;-51
2022/11/16 00:11:50;;;;;;;;;;;;;;;16.51;53.29;100548.16;4863791;29;1141;-52
2022/11/16 00:14:16;;;;;;;;;;;;;;;16.31;53.77;100548.19;4863754;29;1910;-51
2022/11/16 00:16:42;;;;;;;;;;;;;;;17.69;50.77;100541.25;4872859;29;1097;-52
2022/11/16 00:19:08;;;;;;;;;;;;;;;16.89;52.52;100540.34;4871915;29;1172;-52
2022/11/16 00:21:34;;;;;;;;;;;;;;;16.39;53.69;100544.88;4863667;29;1164;-52
2022/11/16 00:23:59;;;;;;;;;;;;;;;16.38;53.93;100535.84;4863169;29;1101;-52
2022/11/16 00:26:25;;;;;;;;;;;;;;;17.43;50.89;100530.44;4863318;29;1129;-52
2022/11/16 00:28:50;;;;;;;;;;;;;;;16.53;53.17;100528.66;4871953;29;962;-53
2022/11/16 00:31:16;;;;;;;;;;;;;;;16.26;53.71;100516.09;4863420;29;1222;-53
2022/11/16 00:33:41;;;;;;;;;;;;;;;17.20;51.94;100531.16;4863503;29;1903;-53
2022/11/16 00:36:07;;;;;;;;;;;;;;;17.06;52.01;100529.00;4864066;29;1204;-52
2022/11/16 00:38:33;;;;;;;;;;;;;;;16.45;53.49;100523.72;4863137;29;1195;-53
2022/11/16 00:40:58;;;;;;;;;;;;;;;16.22;53.97;100515.00;4874428;29;1077;-50
2022/11/16 00:43:24;;;;;;;;;;;;;;;17.63;50.87;100517.66;4867020;29;1226;-51
2022/11/16 00:45:49;;;;;;;;;;;;;;;16.90;52.34;100521.94;4849941;29;1257;-49
2022/11/16 00:48:15;;;;;;;;;;;;;;;16.40;53.52;100508.94;4866595;29;1164;-52
2022/11/16 00:50:41;;;;;;;;;;;;;;;16.19;53.63;100508.16;4850006;29;1268;-53
2022/11/16 00:53:06;;;;;;;;;;;;;;;17.23;51.65;100498.41;4849642;29;1986;-50
2022/11/16 00:55:32;;;;;;;;;;;;;;;16.97;52.33;100506.00;4850097;29;1216;-50
2022/11/16 00:57:59;;;;;;;;;;;;;;;16.38;53.34;100511.16;4849717;29;1299;-50
2022/11/16 01:00:24;;;;;;;;;;;;;;;16.23;53.95;100503.75;4866102;29;1152;-52
2022/11/16 01:02:53;;;;;;;;;;;;;;;17.73;50.33;100501.06;4866250;29;1247;-52
2022/11/16 01:05:18;;;;;;;;;;;;;;;16.72;52.82;100496.75;4874126;29;890;-52
2022/11/16 01:07:44;;;;;;;;;;;;;;;16.33;53.47;100500.16;4865996;29;1171;-52
2022/11/16 01:10:12;;;;;;;;;;;;;;;16.25;53.95;100492.50;4866672;29;1125;-53
2022/11/16 01:12:40;;;;;;;;;;;;;;;17.81;49.99;100485.06;4849528;29;1228;-52
2022/11/16 01:15:07;;;;;;;;;;;;;;;16.87;52.50;100484.03;4865800;29;1180;-50
2022/11/16 01:17:33;;;;;;;;;;;;;;;16.40;53.34;100476.00;4877535;29;918;-52
2022/11/16 01:19:59;;;;;;;;;;;;;;;16.21;53.80;100483.19;4868660;29;1112;-52
2022/11/16 01:22:24;;;;;;;;;;;;;;;17.73;50.51;100478.25;4865866;29;1211;-51
2022/11/16 01:24:50;;;;;;;;;;;;;;;16.96;52.22;100474.13;4866187;29;1200;-49
2022/11/16 01:27:15;;;;;;;;;;;;;;;16.42;53.52;100471.06;4866532;29;1224;-52
2022/11/16 01:29:44;;;;;;;;;;;;;;;16.71;53.01;100464.06;4870316;29;921;-52
2022/11/16 01:32:09;;;;;;;;;;;;;;;17.58;50.66;100459.94;4849119;29;1203;-51
2022/11/16 01:34:35;;;;;;;;;;;;;;;16.66;52.79;100464.94;4849057;29;1969;-49
2022/11/16 01:37:06;;;;;;;;;;;;;;;16.32;53.40;100449.13;4865622;29;1141;-51
2022/11/16 01:39:36;;;;;;;;;;;;;;;16.80;52.77;100469.78;4849259;29;1317;-49
2022/11/16 01:42:02;;;;;;;;;;;;;;;17.39;51.06;100457.06;4856025;29;1151;-50
2022/11/16 01:44:30;;;;;;;;;;;;;;;16.63;53.07;100451.75;4865515;29;1085;-54
2022/11/16 01:47:02;;;;;;;;;;;;;;;16.75;52.94;100459.66;4849164;29;1344;-52
2022/11/16 01:49:28;;;;;;;;;;;;;;;17.37;50.85;100454.63;4848553;29;1295;-50
2022/11/16 01:51:56;;;;;;;;;;;;;;;16.59;53.05;100445.19;4850501;29;1101;-52
2022/11/16 01:54:22;;;;;;;;;;;;;;;16.32;53.35;100435.41;4848868;29;1966;-51
2022/11/16 01:56:54;;;;;;;;;;;;;;;17.73;50.45;100437.81;4848933;29;1164;-49
2022/11/16 01:59:28;;;;;;;;;;;;;;;16.85;52.48;100428.59;4865141;29;1112;-51
2022/11/16 02:01:54;;;;;;;;;;;;;;;16.48;52.95;100438.09;4833831;29;1157;-50
2022/11/16 02:04:22;;;;;;;;;;;;;;;16.28;53.61;100428.84;4852149;29;1219;-50
2022/11/16 02:07:11;;;;;;;;;;;;;;;17.69;50.23;100434.00;4848304;29;1207;-50
2022/11/16 02:09:57;;;;;;;;;;;;;;;16.73;52.52;100438.00;4848300;29;1184;-50
2022/11/16 02:12:44;;;;;;;;;;;;;;;16.31;53.51;100433.75;4848583;29;1215;-52
2022/11/16 02:15:25;;;;;;;;;;;;;;;16.92;52.31;100431.88;4835463;29;2008;-52
2022/11/16 02:18:32;;;;;;;;;;;;;;;16.91;52.07;100430.22;4861162;29;1289;-52
2022/11/16 02:21:01;;;;;;;;;;;;;;;16.42;53.18;100429.06;4848119;29;1423;-50
2022/11/16 02:23:32;;;;;;;;;;;;;;;16.92;52.53;100431.88;4864952;29;1140;-52
2022/11/16 02:26:16;;;;;;;;;;;;;;;17.35;50.92;100434.84;4865270;29;1112;-51
2022/11/16 02:28:44;;;;;;;;;;;;;;;16.49;53.13;100418.59;4849548;29;1208;-53
2022/11/16 02:31:11;;;;;;;;;;;;;;;16.26;53.44;100420.06;4848281;29;1294;-53
2022/11/16 02:33:38;;;;;;;;;;;;;;;16.04;53.81;100421.22;4848439;29;1904;-52
2022/11/16 02:36:04;;;;;;;;;;;;;;;17.54;50.82;100412.97;4833160;29;1145;-53
2022/11/16 02:38:30;;;;;;;;;;;;;;;16.92;52.09;100404.41;4848459;29;1132;-50
2022/11/16 02:40:57;;;;;;;;;;;;;;;16.42;53.13;100396.97;4851285;29;1191;-49
2022/11/16 02:43:28;;;;;;;;;;;;;;;16.28;53.79;100401.41;4833171;29;1224;-49
2022/11/16 02:45:54;;;;;;;;;;;;;;;17.54;50.53;100390.16;4864490;29;1149;-49
2022/11/16 02:48:21;;;;;;;;;;;;;;;16.63;52.56;100393.28;4848194;29;1223;-50
2022/11/16 02:50:47;;;;;;;;;;;;;;;16.34;53.52;100389.31;4847538;29;1257;-52
2022/11/16 02:53:13;;;;;;;;;;;;;;;17.82;49.93;100401.44;4850003;29;1980;-51
2022/11/16 02:55:38;;;;;;;;;;;;;;;16.87;52.13;100385.16;4848196;29;1217;-51
2022/11/16 02:58:04;;;;;;;;;;;;;;;16.43;52.96;100387.63;4847669;29;1184;-49
2022/11/16 03:00:50;;;;;;;;;;;;;;;16.98;52.20;100403.25;4847807;29;1548;-51
2022/11/16 03:03:21;;;;;;;;;;;;;;;17.15;51.26;100385.53;4847098;29;1169;-51
2022/11/16 03:05:47;;;;;;;;;;;;;;;16.54;52.92;100376.59;4864207;29;916;-50
2022/11/16 03:08:32;;;;;;;;;;;;;;;16.23;53.31;100377.56;4832786;29;1208;-51
2022/11/16 03:13:49;;;;;;;;;;;;;;;16.95;52.08;100373.59;4831730;29;1981;-49
2022/11/16 03:16:19;;;;;;;;;;;;;;;16.40;53.13;100371.72;4859277;29;1152;-49
2022/11/16 03:18:45;;;;;;;;;;;;;;;16.18;53.24;100363.03;4843470;29;1144;-51
2022/11/16 03:21:15;;;;;;;;;;;;;;;16.74;52.83;100368.22;4832531;29;1347;-52
2022/11/16 03:23:42;;;;;;;;;;;;;;;17.41;50.81;100366.91;4854565;29;1290;-53
2022/11/16 03:26:07;;;;;;;;;;;;;;;16.54;52.63;100355.44;4863098;29;1156;-52
2022/11/16 03:28:35;;;;;;;;;;;;;;;16.21;53.20;100367.97;4848106;29;1357;-51
2022/11/16 03:31:06;;;;;;;;;;;;;;;17.52;50.70;100362.97;4873107;29;1540;-53
2022/11/16 03:33:35;;;;;;;;;;;;;;;16.99;51.64;100360.13;4847560;29;1927;-50
2022/11/16 03:36:17;;;;;;;;;;;;;;;16.45;52.96;100372.78;4832526;29;1212;-53
2022/11/16 03:38:42;;;;;;;;;;;;;;;16.31;53.36;100361.63;4847629;29;1156;-50
2022/11/16 03:41:08;;;;;;;;;;;;;;;17.81;49.88;100364.03;4852038;29;1132;-53
2022/11/16 03:43:33;;;;;;;;;;;;;;;16.74;52.20;100354.50;4844755;29;1172;-51
2022/11/16 03:46:00;;;;;;;;;;;;;;;16.31;53.15;100345.16;4844713;29;1290;-51
2022/11/16 03:48:31;;;;;;;;;;;;;;;16.69;52.86;100351.81;4847525;29;1156;-49
2022/11/16 03:50:57;;;;;;;;;;;;;;;17.41;50.40;100348.50;4830565;29;1314;-53
2022/11/16 03:53:23;;;;;;;;;;;;;;;16.47;52.75;100349.47;4855264;29;1970;-53
2022/11/16 03:55:49;;;;;;;;;;;;;;;16.69;52.42;100342.72;4847198;29;1216;-52
2022/11/16 03:58:17;;;;;;;;;;;;;;;17.44;50.54;100338.84;4846929;29;1299;-52
2022/11/16 04:00:43;;;;;;;;;;;;;;;16.58;52.61;100334.56;4847353;29;1215;-52
2022/11/16 04:03:09;;;;;;;;;;;;;;;16.33;53.00;100338.28;4866460;29;1136;-53
2022/11/16 04:24:57;;;;;;;;;;;;;;;17.29;51.18;100323.31;4852446;29;1217;-60
2022/11/16 04:30:08;;;;;;;;;;;;;;;16.37;52.93;100320.16;4860290;29;972;-60
2022/11/16 04:38:03;;;;;;;;;;;;;;;17.32;50.91;100319.19;4850110;29;1175;-61
2022/11/16 04:40:32;;;;;;;;;;;;;;;16.42;52.97;100309.16;4855146;29;1074;-60
2022/11/16 04:42:59;;;;;;;;;;;;;;;16.14;53.47;100320.81;4852840;29;1198;-60
2022/11/16 04:48:13;;;;;;;;;;;;;;;17.05;51.46;100315.03;4849744;29;1215;-61
2022/11/16 04:50:39;;;;;;;;;;;;;;;16.40;53.02;100303.13;4849896;29;1196;-60
2022/11/16 04:53:06;;;;;;;;;;;;;;;17.60;50.33;100304.59;4849417;29;1976;-60
2022/11/16 04:55:38;;;;;;;;;;;;;;;16.92;51.69;100305.53;4857289;29;1155;-55
2022/11/16 04:58:03;;;;;;;;;;;;;;;16.47;52.75;100304.75;4849605;29;1256;-62
2022/11/16 05:00:30;;;;;;;;;;;;;;;16.32;53.45;100298.22;4864452;29;1434;-59
2022/11/16 05:02:55;;;;;;;;;;;;;;;17.71;49.87;100304.47;4849240;29;1179;-58
2022/11/16 05:05:21;;;;;;;;;;;;;;;16.70;52.30;100311.44;4850425;29;1287;-57
2022/11/16 05:07:48;;;;;;;;;;;;;;;16.28;53.06;100297.16;4853308;29;1171;-55
2022/11/16 05:10:20;;;;;;;;;;;;;;;17.72;49.78;100301.44;4849743;29;1231;-59
2022/11/16 05:12:47;;;;;;;;;;;;;;;16.85;51.65;100307.75;4849234;29;1160;-58
2022/11/16 05:15:12;;;;;;;;;;;;;;;16.42;52.81;100300.91;4849617;29;1915;-60
2022/11/16 05:17:38;;;;;;;;;;;;;;;17.51;50.48;100297.28;4852198;29;1381;-56
2022/11/16 05:22:57;;;;;;;;;;;;;;;16.42;52.93;100298.19;4838592;29;2622;-59
2022/11/16 05:25:27;;;;;;;;;;;;;;;16.55;52.84;100302.19;4848688;29;1333;-61
2022/11/16 05:27:52;;;;;;;;;;;;;;;17.69;49.79;100302.03;4864581;29;1200;-60
2022/11/16 05:30:18;;;;;;;;;;;;;;;16.71;52.18;100291.91;4848535;29;1245;-58
2022/11/16 05:32:44;;;;;;;;;;;;;;;16.37;52.85;100289.97;4848191;29;1330;-54
2022/11/16 05:35:10;;;;;;;;;;;;;;;16.83;52.18;100286.06;4830387;29;1907;-55
2022/11/16 05:37:37;;;;;;;;;;;;;;;17.35;50.48;100285.63;4830521;29;1186;-57
2022/11/16 05:40:02;;;;;;;;;;;;;;;16.61;52.33;100292.00;4830976;29;1176;-57
2022/11/16 05:42:56;;;;;;;;;;;;;;;16.29;52.74;100287.00;4841138;29;1340;-58
2022/11/16 05:45:22;;;;;;;;;;;;;;;17.34;50.94;100287.56;4845740;29;1222;-57
2022/11/16 05:47:48;;;;;;;;;;;;;;;17.07;50.93;100288.91;4830164;29;1277;-57
2022/11/16 05:50:14;;;;;;;;;;;;;;;16.54;52.39;100288.78;4830146;29;1953;-59
2022/11/16 05:52:40;;;;;;;;;;;;;;;16.26;52.95;100293.88;4861035;29;2450;-56
2022/11/16 05:55:09;;;;;;;;;;;;;;;16.96;51.58;100295.59;4847580;29;1907;-58
2022/11/16 05:57:40;;;;;;;;;;;;;;;17.18;50.73;100288.81;4848494;29;1231;-56
2022/11/16 06:00:06;;;;;;;;;;;;;;;16.49;52.66;100286.06;4836550;29;1312;-56
2022/11/16 06:02:40;;;;;;;;;;;;;;;17.00;51.68;100287.59;4846242;29;915;-57
2022/11/16 06:05:06;;;;;;;;;;;;;;;17.42;50.34;100280.63;4830038;29;1198;-62
2022/11/16 06:07:33;;;;;;;;;;;;;;;16.64;52.10;100282.38;4840279;29;1259;-62
2022/11/16 06:09:59;;;;;;;;;;;;;;;16.31;52.80;100274.63;4860928;29;1308;-56
2022/11/16 06:12:24;;;;;;;;;;;;;;;16.72;52.09;100279.84;4830318;29;1241;-60
2022/11/16 06:14:49;;;;;;;;;;;;;;;17.73;49.48;100278.31;4846395;29;1893;-55
2022/11/16 06:17:15;;;;;;;;;;;;;;;16.79;51.63;100275.94;4848746;29;1195;-61
2022/11/16 06:19:42;;;;;;;;;;;;;;;16.37;52.64;100261.72;4847759;29;1332;-59
2022/11/16 06:22:07;;;;;;;;;;;;;;;16.18;52.98;100269.78;4847320;29;1842;-56
2022/11/16 06:24:33;;;;;;;;;;;;;;;17.12;51.18;100265.25;4847512;29;1327;-58
2022/11/16 06:26:59;;;;;;;;;;;;;;;17.36;50.17;100259.78;4847824;29;1244;-59
2022/11/16 06:29:24;;;;;;;;;;;;;;;16.66;51.92;100255.44;4847497;29;1334;-58
2022/11/16 06:31:51;;;;;;;;;;;;;;;16.40;52.91;100247.41;4847670;29;1196;-56
2022/11/16 06:34:17;;;;;;;;;;;;;;;17.15;50.83;100242.69;4862444;29;1918;-57
2022/11/16 06:36:42;;;;;;;;;;;;;;;16.49;51.09;100236.66;4854249;29;1120;-60
2022/11/16 06:39:10;;;;;;;;;;;;;;;16.61;51.21;100228.88;4851083;29;1073;-46
2022/11/16 06:41:36;;;;;;;;;;;;;;;16.55;51.45;100240.97;4829845;29;1133;-55
2022/11/16 06:44:01;;;;;;;;;;;;;;;16.17;50.40;100230.56;4850518;29;926;-56
2022/11/16 06:46:32;;;;;;;;;;;;;;;17.56;50.27;100223.00;4832851;29;1337;-56
2022/11/16 06:48:57;;;;;;;;;;;;;;;16.52;50.68;100225.94;4847702;29;1347;-56
2022/11/16 06:51:23;;;;;;;;;;;;;;;16.28;49.37;100219.50;4843014;29;2239;-57
2022/11/16 06:53:48;;;;;;;;;;;;;;;17.21;50.92;100219.56;4845678;29;1899;-58
2022/11/16 06:56:15;;;;;;;;;;;;;;;16.78;51.49;100222.97;4847136;29;1250;-59
2022/11/16 06:58:54;;;;;;;;;;;;;;;18.56;48.54;100214.72;4838920;29;1305;-58
2022/11/16 07:01:22;;;;;;;;;;;;;;;17.47;50.17;100211.03;4832017;29;1276;-55
2022/11/16 07:03:49;;;;;;;;;;;;;;;16.82;49.86;100207.53;4829421;29;1182;-57
2022/11/16 07:06:15;;;;;;;;;;;;;;;16.51;49.80;100215.22;4858386;29;1057;-55
2022/11/16 07:08:43;;;;;;;;;;;;;;;17.18;50.54;100207.22;4859978;29;1179;-56
2022/11/16 07:11:10;;;;;;;;;;;;;;;16.76;49.76;100198.53;4849383;29;1457;-54
2022/11/16 07:13:36;;;;;;;;;;;;;;;17.29;50.36;100210.66;4857082;29;1932;-50
2022/11/16 07:16:07;;;;;;;;;;;;;;;16.97;50.83;100203.88;4829446;29;1298;-52
2022/11/16 07:18:33;;;;;;;;;;;;;;;18.14;49.78;100213.72;4831969;29;1199;-59
2022/11/16 07:20:59;;;;;;;;;;;;;;;18.90;48.14;100204.53;4851694;29;2290;-58
2022/11/16 07:23:25;;;;;;;;;;;;;;;17.41;50.17;100204.75;4833354;29;1407;-58
2022/11/16 07:25:50;;;;;;;;;;;;;;;16.99;49.39;100209.88;4847570;29;1228;-54
2022/11/16 07:28:28;;;;;;;;;;;;;;;16.81;48.26;100216.06;4847219;29;1179;-55
2022/11/16 07:30:54;;;;;;;;;;;;;;;16.94;49.33;100207.19;4846683;29;1335;-58
2022/11/16 07:33:26;;;;;;;;;;;;;;;17.47;50.54;100202.78;4862432;29;1982;-60
2022/11/16 07:36:13;;;;;;;;;;;;;;;16.81;49.57;100196.84;4831714;29;1171;-55
2022/11/16 07:38:39;;;;;;;;;;;;;;;17.41;50.13;100197.31;4855917;29;1278;-54
2022/11/16 07:41:07;;;;;;;;;;;;;;;17.06;50.33;100196.63;4847349;29;1133;-55
2022/11/16 07:43:35;;;;;;;;;;;;;;;17.68;50.16;100186.84;4847113;29;1164;-56
2022/11/16 07:46:12;;;;;;;;;;;;;;;18.34;49.30;100193.34;4847120;29;1215;-53
2022/11/16 07:48:38;;;;;;;;;;;;;;;17.39;49.89;100182.25;4863853;29;1093;-55
2022/11/16 07:51:35;;;;;;;;;;;;;;;16.92;48.87;100184.69;4866304;29;1850;-58
2022/11/16 07:54:11;;;;;;;;;;;;;;;17.37;50.54;100184.47;4851021;29;1907;-57
2022/11/16 07:56:36;;;;;;;;;;;;;;;16.97;49.99;100175.56;4876331;29;1154;-55
2022/11/16 07:59:02;;;;;;;;;;;;;;;18.41;49.59;100171.75;4867479;29;1192;-56
2022/11/16 08:01:32;;;;;;;;;;;;;;;18.32;49.62;100168.03;4850310;29;1320;-62
2022/11/16 08:04:00;;;;;;;;;;;;;;;17.41;49.80;100175.34;4850843;29;1120;-55
2022/11/16 08:06:26;;;;;;;;;;;;;;;17.39;50.10;100174.81;4867586;29;1108;-58
2022/11/16 08:08:53;;;;;;;;;;;;;;;17.75;50.71;100173.53;4835321;29;1163;-56
2022/11/16 08:11:19;;;;;;;;;;;;;;;17.20;49.67;100184.94;4867261;29;1140;-55
2022/11/16 08:13:44;;;;;;;;;;;;;;;17.93;50.40;100167.25;4867241;29;1907;-57
2022/11/16 08:16:11;;;;;;;;;;;;;;;17.24;50.51;100164.81;4850406;29;1336;-57
2022/11/16 08:18:37;;;;;;;;;;;;;;;16.91;49.28;100172.91;4850593;29;1345;-55
2022/11/16 08:21:03;;;;;;;;;;;;;;;17.74;49.97;100178.22;4848714;29;1892;-54
2022/11/16 08:23:29;;;;;;;;;;;;;;;17.04;50.36;100176.88;4866034;29;1050;-57
2022/11/16 08:25:59;;;;;;;;;;;;;;;18.76;48.79;100157.66;4849103;29;1315;-56
2022/11/16 08:28:25;;;;;;;;;;;;;;;18.38;49.62;100157.75;4846021;29;1374;-55
2022/11/16 08:30:52;;;;;;;;;;;;;;;17.48;49.70;100152.19;4848760;29;1208;-55
2022/11/16 08:33:18;;;;;;;;;;;;;;;17.19;48.67;100153.09;4848700;29;1907;-54
2022/11/16 08:35:43;;;;;;;;;;;;;;;17.87;50.02;100145.59;4850022;29;1236;-52
2022/11/16 08:38:09;;;;;;;;;;;;;;;17.26;49.96;100145.31;4849515;29;1136;-55
2022/11/16 08:40:36;;;;;;;;;;;;;;;17.82;50.46;100151.16;4866152;29;1065;-55
2022/11/16 08:43:01;;;;;;;;;;;;;;;18.33;49.76;100144.91;4848608;29;1189;-56
2022/11/16 08:45:27;;;;;;;;;;;;;;;17.48;50.03;100135.69;4849457;29;1148;-57
2022/11/16 08:47:54;;;;;;;;;;;;;;;17.33;50.06;100148.50;4849511;29;1332;-57
2022/11/16 08:50:20;;;;;;;;;;;;;;;17.73;50.15;100149.09;4849705;29;1168;-57
2022/11/16 08:52:46;;;;;;;;;;;;;;;17.19;49.43;100145.66;4861498;29;2231;-54
2022/11/16 08:55:12;;;;;;;;;;;;;;;17.65;49.98;100137.94;4858933;29;2010;-57
2022/11/16 08:57:39;;;;;;;;;;;;;;;17.24;49.78;100142.03;4858070;29;1963;-58
2022/11/16 09:00:10;;;;;;;;;;;;;;;17.56;50.03;100140.53;4840659;29;1282;-57
2022/11/16 09:02:35;;;;;;;;;;;;;;;18.18;49.63;100132.22;4857079;29;1340;-52
2022/11/16 09:05:01;;;;;;;;;;;;;;;17.29;49.70;100139.22;4860082;29;892;-56
2022/11/16 09:07:26;;;;;;;;;;;;;;;17.12;48.59;100127.91;4860964;29;980;-56
2022/11/16 09:09:51;;;;;;;;;;;;;;;17.66;49.91;100137.63;4866571;29;1143;-55
2022/11/16 09:12:17;;;;;;;;;;;;;;;17.16;49.63;100127.00;4864277;29;1307;-52
2022/11/16 09:14:42;;;;;;;;;;;;;;;18.03;49.78;100127.75;4864866;29;1886;-55
2022/11/16 09:17:08;;;;;;;;;;;;;;;18.37;49.30;100117.59;4860862;29;1219;-53
2022/11/16 09:19:33;;;;;;;;;;;;;;;17.54;49.51;100107.81;4859766;29;1023;-56
2022/11/16 09:21:58;;;;;;;;;;;;;;;17.12;48.73;100109.47;4859393;29;1801;-56
2022/11/16 09:24:24;;;;;;;;;;;;;;;17.36;49.18;100095.72;4836321;29;1017;-52
2022/11/16 09:26:50;;;;;;;;;;;;;;;17.30;49.87;100083.16;4859511;29;1207;-54
2022/11/16 09:29:15;;;;;;;;;;;;;;;18.24;50.02;100092.50;4859062;29;908;-55
2022/11/16 09:31:42;;;;;;;;;;;;;;;19.13;48.21;100090.56;4843413;29;1327;-61
2022/11/16 09:34:08;;;;;;;;;;;;;;;17.92;49.75;100079.53;4864354;29;1984;-55
2022/11/16 09:36:33;;;;;;;;;;;;;;;17.42;48.94;100067.03;4864278;29;1176;-56
2022/11/16 09:38:58;;;;;;;;;;;;;;;17.34;47.80;100073.19;4864792;29;1179;-56
2022/11/16 09:41:24;;;;;;;;;;;;;;;17.28;48.84;100074.41;4864075;29;1152;-56
2022/11/16 09:43:50;;;;;;;;;;;;;;;17.53;49.28;100072.38;4865096;29;1113;-56
2022/11/16 09:46:20;;;;;;;;;;;;;;;17.06;48.92;100069.47;4864067;29;1144;-55
2022/11/16 09:48:46;;;;;;;;;;;;;;;16.90;47.82;100066.06;4847791;29;1038;-56
2022/11/16 09:51:12;;;;;;;;;;;;;;;16.91;46.96;100067.72;4863954;29;1936;-57
2022/11/16 09:53:44;;;;;;;;;;;;;;;18.01;48.84;100055.72;4847162;29;1907;-57
2022/11/16 09:56:11;;;;;;;;;;;;;;;17.15;49.30;100044.88;4861887;29;1002;-56
2022/11/16 09:58:59;;;;;;;;;;;;;;;17.98;49.49;100039.00;4865198;29;971;-56
2022/11/16 10:01:26;;;;;;;;;;;;;;;17.57;50.18;100037.69;4856742;29;1394;-57
2022/11/16 10:03:53;;;;;;;;;;;;;;;17.23;49.15;100030.50;4849019;29;1164;-56
2022/11/16 10:06:22;;;;;;;;;;;;;;;17.03;48.16;100026.91;4848380;29;891;-56
2022/11/16 10:08:50;;;;;;;;;;;;;;;17.01;48.42;100018.16;4865087;29;968;-57
2022/11/16 10:11:32;;;;;;;;;;;;;;;17.39;49.43;100014.59;4864249;29;1097;-55
2022/11/16 10:14:08;;;;;;;;;;;;;;;17.70;49.52;100012.22;4860875;29;1989;-54
2022/11/16 10:16:33;;;;;;;;;;;;;;;18.88;48.60;100014.75;4847967;29;1090;-55
2022/11/16 10:18:58;;;;;;;;;;;;;;;17.58;50.12;100014.59;4863561;29;1373;-58
2022/11/16 10:21:39;;;;;;;;;;;;;;;17.09;49.39;100002.94;4861374;29;1843;-61
2022/11/16 10:24:11;;;;;;;;;;;;;;;17.13;47.80;100003.19;4856905;29;1190;-57
2022/11/16 10:26:48;;;;;;;;;;;;;;;17.88;49.61;99996.78;4862872;29;931;-56
2022/11/16 10:29:13;;;;;;;;;;;;;;;17.14;49.58;100002.88;4859369;29;1166;-54
2022/11/16 10:31:54;;;;;;;;;;;;;;;17.36;49.48;99991.31;4862103;29;1011;-58
2022/11/16 10:34:27;;;;;;;;;;;;;;;17.48;49.53;99990.03;4862169;29;1934;-53
2022/11/16 10:36:53;;;;;;;;;;;;;;;16.99;48.74;99981.91;4846984;29;1049;-57
2022/11/16 10:39:19;;;;;;;;;;;;;;;17.82;48.97;99986.97;4846695;29;1058;-58
2022/11/16 10:41:49;;;;;;;;;;;;;;;17.17;49.16;99976.75;4846460;29;999;-56
2022/11/16 10:44:35;;;;;;;;;;;;;;;17.96;49.30;99973.28;4861593;29;1151;-53
2022/11/16 10:47:02;;;;;;;;;;;;;;;17.72;49.69;99968.72;4857976;29;884;-56
2022/11/16 10:49:29;;;;;;;;;;;;;;;17.25;49.18;99973.31;4859906;29;1116;-52
2022/11/16 10:51:54;;;;;;;;;;;;;;;17.02;49.01;99967.59;4860449;29;1842;-50
2022/11/16 10:54:20;;;;;;;;;;;;;;;17.51;49.36;99953.69;4844083;29;1987;-54
2022/11/16 10:56:46;;;;;;;;;;;;;;;17.05;48.96;99952.47;4861248;29;935;-56
2022/11/16 10:59:12;;;;;;;;;;;;;;;16.89;48.05;99941.69;4846408;29;1136;-53
2022/11/16 11:01:48;;;;;;;;;;;;;;;17.36;48.72;99933.59;4861478;29;956;-55
2022/11/16 11:04:15;;;;;;;;;;;;;;;17.12;48.65;99935.59;4860418;29;1051;-62
2022/11/16 11:06:40;;;;;;;;;;;;;;;16.82;48.14;99937.66;4861441;29;839;-59
2022/11/16 11:09:15;;;;;;;;;;;;;;;17.41;48.18;99933.50;4860983;29;1036;-58
2022/11/16 11:14:24;;;;;;;;;;;;;;;16.96;49.25;99924.84;4859494;29;1978;-55
2022/11/16 11:16:51;;;;;;;;;;;;;;;17.98;48.98;99934.47;4843829;29;948;-61
2022/11/16 11:19:17;;;;;;;;;;;;;;;17.22;49.16;99924.44;4862429;29;1042;-56
2022/11/16 11:21:43;;;;;;;;;;;;;;;17.05;49.60;99925.00;4855621;29;1902;-54
2022/11/16 11:24:13;;;;;;;;;;;;;;;17.37;49.42;99920.66;4860079;29;1165;-58
2022/11/16 11:26:39;;;;;;;;;;;;;;;17.18;49.25;99907.78;4843337;29;964;-60
2022/11/16 11:29:08;;;;;;;;;;;;;;;18.59;48.14;99916.75;4843933;29;975;-59
2022/11/16 11:31:34;;;;;;;;;;;;;;;17.48;49.24;99916.63;4860782;29;977;-57
2022/11/16 11:34:09;;;;;;;;;;;;;;;17.14;48.71;99905.91;4861565;29;1980;-57
2022/11/16 11:36:37;;;;;;;;;;;;;;;17.71;49.32;99900.28;4856187;29;922;-58
2022/11/16 11:39:06;;;;;;;;;;;;;;;17.20;49.38;99896.47;4861487;29;960;-53
2022/11/16 11:41:38;;;;;;;;;;;;;;;16.97;48.75;99906.44;4861824;29;946;-55
2022/11/16 11:44:04;;;;;;;;;;;;;;;17.77;48.64;99893.59;4859996;29;1229;-61
2022/11/16 11:46:32;;;;;;;;;;;;;;;17.10;49.05;99883.72;4862267;29;1112;-58
2022/11/16 11:49:00;;;;;;;;;;;;;;;17.61;49.14;99887.53;4844334;29;890;-57
2022/11/16 11:51:30;;;;;;;;;;;;;;;17.56;49.67;99891.19;4843081;29;1827;-56
2022/11/16 11:53:56;;;;;;;;;;;;;;;17.17;48.70;99883.34;4845477;29;1906;-60
2022/11/16 11:56:21;;;;;;;;;;;;;;;17.20;49.21;99882.75;4859727;29;1054;-58
2022/11/16 11:58:47;;;;;;;;;;;;;;;17.77;49.20;99880.66;4859734;29;935;-55
2022/11/16 12:01:21;;;;;;;;;;;;;;;17.20;48.70;99874.50;4859278;29;1017;-57
2022/11/16 12:04:25;;;;;;;;;;;;;;;18.48;48.52;99871.28;4860732;29;1160;-56
2022/11/16 12:06:53;;;;;;;;;;;;;;;17.48;49.11;99871.84;4774218;30;1113;-55
2022/11/16 12:09:18;;;;;;;;;;;;;;;17.13;48.37;99863.09;4760616;30;1151;-58
2022/11/16 12:12:02;;;;;;;;;;;;;;;16.92;47.70;99866.13;4808468;29;1009;-55
2022/11/16 12:14:46;;;;;;;;;;;;;;;17.41;49.09;99862.03;4860117;29;1977;-57
2022/11/16 12:17:15;;;;;;;;;;;;;;;17.02;48.16;99865.97;4861405;29;1007;-58
2022/11/16 12:19:46;;;;;;;;;;;;;;;18.26;48.18;99859.09;4843458;29;955;-56
2022/11/16 12:22:35;;;;;;;;;;;;;;;17.31;49.15;99855.91;4863068;29;1929;-52
2022/11/16 12:25:10;;;;;;;;;;;;;;;17.10;48.72;99848.81;4842645;29;1164;-60
2022/11/16 12:27:43;;;;;;;;;;;;;;;17.33;49.43;99853.69;4834558;29;1001;-57
2022/11/16 12:30:10;;;;;;;;;;;;;;;16.99;48.55;99839.13;4842953;29;1229;-57
2022/11/16 12:32:38;;;;;;;;;;;;;;;17.00;48.19;99842.66;4854488;29;1140;-54
2022/11/16 12:35:04;;;;;;;;;;;;;;;17.70;48.78;99841.75;4853858;29;1980;-54
2022/11/16 12:37:30;;;;;;;;;;;;;;;17.08;48.60;99839.25;4863631;29;1136;-57
2022/11/16 12:40:03;;;;;;;;;;;;;;;17.53;49.08;99836.00;4865014;29;889;-55
2022/11/16 12:42:28;;;;;;;;;;;;;;;17.61;49.04;99832.56;4845529;29;1063;-57
2022/11/16 12:44:54;;;;;;;;;;;;;;;17.12;48.54;99843.03;4861156;29;1263;-56
2022/11/16 12:47:23;;;;;;;;;;;;;;;16.99;48.16;99833.63;4863596;29;946;-55
2022/11/16 12:49:51;;;;;;;;;;;;;;;17.61;48.93;99833.38;4846558;29;1248;-55
2022/11/16 12:52:21;;;;;;;;;;;;;;;17.07;49.02;99834.88;4863862;29;1430;-55
2022/11/16 12:55:05;;;;;;;;;;;;;;;18.30;48.44;99837.28;4847440;29;1988;-59
2022/11/16 12:57:42;;;;;;;;;;;;;;;17.39;49.02;99831.31;4862987;29;1121;-56
2022/11/16 13:00:08;;;;;;;;;;;;;;;18.18;48.58;99834.25;4865292;29;1176;-57
2022/11/16 13:02:37;;;;;;;;;;;;;;;18.02;49.13;99830.97;4847735;29;1145;-58
2022/11/16 13:05:11;;;;;;;;;;;;;;;17.45;48.73;99829.28;4862666;29;1157;-60
2022/11/16 13:07:40;;;;;;;;;;;;;;;17.17;48.16;99831.16;4862859;29;1216;-57
2022/11/16 13:10:28;;;;;;;;;;;;;;;17.27;48.15;99828.22;4865593;29;1234;-60
2022/11/16 13:13:00;;;;;;;;;;;;;;;17.45;49.25;99824.59;4863561;29;1184;-58
2022/11/16 13:15:36;;;;;;;;;;;;;;;17.17;48.21;99829.22;4863129;29;1989;-58
2022/11/16 13:18:02;;;;;;;;;;;;;;;18.08;48.65;99836.06;4847438;29;1086;-58
2022/11/16 13:20:28;;;;;;;;;;;;;;;17.32;49.18;99824.56;4848422;29;1192;-60
2022/11/16 13:22:59;;;;;;;;;;;;;;;17.22;48.85;99815.41;4865073;29;1904;-56
2022/11/16 13:25:30;;;;;;;;;;;;;;;17.92;48.88;99818.25;4849408;29;1161;-54
2022/11/16 13:27:57;;;;;;;;;;;;;;;17.36;48.51;99818.19;4848498;29;1195;-56
2022/11/16 13:30:27;;;;;;;;;;;;;;;17.09;47.97;99816.16;4849335;29;1193;-62
2022/11/16 13:32:53;;;;;;;;;;;;;;;16.89;47.27;99818.13;4865589;29;1274;-55
2022/11/16 13:35:19;;;;;;;;;;;;;;;17.71;48.47;99826.88;4866537;29;1984;-55
2022/11/16 13:37:46;;;;;;;;;;;;;;;17.08;48.66;99826.34;4865628;29;1220;-55